sensor_id;sensor_type;location;lat;lon;timestamp;temperature;humidity
18043;DHT22;9146;48.074;11.968;2023-04-03T00:02:09;1.00;99.90
18043;DHT22;9146;48.074;11.968;2023-04-03T00:04:36;1.00;99.90
18043;DHT22;9146;48.074;11.968;2023-04-03T00:07:03;1.00;99.90
18043;DHT22;9146;48.074;11.968;2023-04-03T00:09:31;1.00;99.90
18043;DHT22;9146;48.074;11.968;2023-04-03T00:11:58;0.90;99.90
18043;DHT22;9146;48.074;11.968;2023-04-03T00:14:26;0.90;99.90
18043;DHT22;9146;48.074;11.968;2023-04-03T00:16:53;0.90;99.90
18043;DHT22;9146;48.074;11.968;2023-04-03T00:19:20;0.90;99.90
18043;DHT22;9146;48.074;11.968;2023-04-03T00:21:47;0.90;99.90
18043;DHT22;9146;48.074;11.968;2023-04-03T00:24:14;0.90;99.90
18043;DHT22;9146;48.074;11.968;2023-04-03T00:26:42;1.00;99.90
18043;DHT22;9146;48.074;11.968;2023-04-03T00:29:09;1.00;99.90
18043;DHT22;9146;48.074;11.968;2023-04-03T00:31:36;1.00;99.90
18043;DHT22;9146;48.074;11.968;2023-04-03T00:34:03;1.00;99.90
18043;DHT22;9146;48.074;11.968;2023-04-03T00:36:30;1.00;99.90
18043;DHT22;9146;48.074;11.968;2023-04-03T00:38:56;1.00;99.90
18043;DHT22;9146;48.074;11.968;2023-04-03T00:41:23;1.00;99.90
18043;DHT22;9146;48.074;11.968;2023-04-03T00:43:52;1.00;99.90
18043;DHT22;9146;48.074;11.968;2023-04-03T04:57:12;1.10;99.90
18043;DHT22;9146;48.074;11.968;2023-04-03T04:59:39;1.10;99.90
18043;DHT22;9146;48.074;11.968;2023-04-03T05:02:06;1.20;99.90
18043;DHT22;9146;48.074;11.968;2023-04-03T05:04:33;1.10;99.90
18043;DHT22;9146;48.074;11.968;2023-04-03T05:07:00;1.10;99.90
18043;DHT22;9146;48.074;11.968;2023-04-03T05:09:27;1.10;99.90
18043;DHT22;9146;48.074;11.968;2023-04-03T05:11:54;1.10;99.90
18043;DHT22;9146;48.074;11.968;2023-04-03T05:14:23;1.10;99.90
18043;DHT22;9146;48.074;11.968;2023-04-03T05:16:50;1.10;99.90
18043;DHT22;9146;48.074;11.968;2023-04-03T05:19:19;1.10;99.90
18043;DHT22;9146;48.074;11.968;2023-04-03T05:21:46;1.10;99.90
18043;DHT22;9146;48.074;11.968;2023-04-03T05:24:13;1.10;99.90
18043;DHT22;9146;48.074;11.968;2023-04-03T05:26:41;1.10;99.90
18043;DHT22;9146;48.074;11.968;2023-04-03T05:29:08;1.20;99.90
18043;DHT22;9146;48.074;11.968;2023-04-03T05:31:37;1.10;99.90
18043;DHT22;9146;48.074;11.968;2023-04-03T05:34:04;1.10;99.90
18043;DHT22;9146;48.074;11.968;2023-04-03T05:36:31;1.10;99.90
18043;DHT22;9146;48.074;11.968;2023-04-03T05:38:58;1.20;99.90
18043;DHT22;9146;48.074;11.968;2023-04-03T05:41:26;1.20;99.90
18043;DHT22;9146;48.074;11.968;2023-04-03T05:43:53;1.20;99.90
18043;DHT22;9146;48.074;11.968;2023-04-03T05:46:20;1.20;99.90
18043;DHT22;9146;48.074;11.968;2023-04-03T05:48:48;1.20;99.90
18043;DHT22;9146;48.074;11.968;2023-04-03T05:51:17;1.30;99.90
18043;DHT22;9146;48.074;11.968;2023-04-03T05:53:45;1.30;99.90
18043;DHT22;9146;48.074;11.968;2023-04-03T05:56:13;1.30;99.90
18043;DHT22;9146;48.074;11.968;2023-04-03T05:58:40;1.30;99.90
18043;DHT22;9146;48.074;11.968;2023-04-03T06:01:08;1.30;99.90
18043;DHT22;9146;48.074;11.968;2023-04-03T06:03:34;1.30;99.90
18043;DHT22;9146;48.074;11.968;2023-04-03T06:06:04;1.40;99.90
18043;DHT22;9146;48.074;11.968;2023-04-03T06:08:31;1.40;99.90
18043;DHT22;9146;48.074;11.968;2023-04-03T06:10:59;1.40;99.90
18043;DHT22;9146;48.074;11.968;2023-04-03T06:13:27;1.50;99.90
18043;DHT22;9146;48.074;11.968;2023-04-03T06:15:54;1.40;99.90
18043;DHT22;9146;48.074;11.968;2023-04-03T06:18:22;1.50;99.90
18043;DHT22;9146;48.074;11.968;2023-04-03T06:20:48;1.50;99.90
18043;DHT22;9146;48.074;11.968;2023-04-03T06:23:17;1.50;99.90
18043;DHT22;9146;48.074;11.968;2023-04-03T06:25:44;1.60;99.90
18043;DHT22;9146;48.074;11.968;2023-04-03T06:28:11;1.70;99.90
18043;DHT22;9146;48.074;11.968;2023-04-03T06:30:38;1.70;99.90
18043;DHT22;9146;48.074;11.968;2023-04-03T06:33:05;1.80;99.90
18043;DHT22;9146;48.074;11.968;2023-04-03T06:35:32;1.80;99.90
18043;DHT22;9146;48.074;11.968;2023-04-03T06:38:00;1.90;99.90
18043;DHT22;9146;48.074;11.968;2023-04-03T06:40:31;1.90;99.90
18043;DHT22;9146;48.074;11.968;2023-04-03T06:42:58;2.00;99.90
18043;DHT22;9146;48.074;11.968;2023-04-03T06:45:25;2.00;99.90
18043;DHT22;9146;48.074;11.968;2023-04-03T06:47:53;2.00;99.90
18043;DHT22;9146;48.074;11.968;2023-04-03T06:50:20;2.10;99.90
18043;DHT22;9146;48.074;11.968;2023-04-03T06:52:47;2.10;99.90
18043;DHT22;9146;48.074;11.968;2023-04-03T06:55:14;2.10;99.90
18043;DHT22;9146;48.074;11.968;2023-04-03T06:57:42;2.10;99.90
18043;DHT22;9146;48.074;11.968;2023-04-03T07:00:11;2.20;99.90
18043;DHT22;9146;48.074;11.968;2023-04-03T07:02:38;2.30;99.90
18043;DHT22;9146;48.074;11.968;2023-04-03T07:05:06;2.30;99.90
18043;DHT22;9146;48.074;11.968;2023-04-03T07:07:34;2.30;99.90
18043;DHT22;9146;48.074;11.968;2023-04-03T07:10:01;2.30;99.90
18043;DHT22;9146;48.074;11.968;2023-04-03T07:12:28;2.40;99.90
18043;DHT22;9146;48.074;11.968;2023-04-03T07:14:57;2.40;99.90
18043;DHT22;9146;48.074;11.968;2023-04-03T07:17:24;2.50;99.90
18043;DHT22;9146;48.074;11.968;2023-04-03T07:19:51;2.60;99.90
18043;DHT22;9146;48.074;11.968;2023-04-03T07:22:18;2.70;99.90
18043;DHT22;9146;48.074;11.968;2023-04-03T07:24:45;2.80;99.90
18043;DHT22;9146;48.074;11.968;2023-04-03T07:27:12;2.90;99.90
18043;DHT22;9146;48.074;11.968;2023-04-03T07:29:39;2.90;99.90
18043;DHT22;9146;48.074;11.968;2023-04-03T07:32:08;2.90;99.90
18043;DHT22;9146;48.074;11.968;2023-04-03T07:34:35;2.90;99.90
18043;DHT22;9146;48.074;11.968;2023-04-03T07:37:02;2.90;99.90
18043;DHT22;9146;48.074;11.968;2023-04-03T07:39:30;2.90;99.90
18043;DHT22;9146;48.074;11.968;2023-04-03T07:41:57;3.00;99.90
18043;DHT22;9146;48.074;11.968;2023-04-03T07:44:25;3.00;99.90
18043;DHT22;9146;48.074;11.968;2023-04-03T07:46:52;2.90;99.90
18043;DHT22;9146;48.074;11.968;2023-04-03T07:49:22;2.90;99.90
18043;DHT22;9146;48.074;11.968;2023-04-03T07:51:49;3.00;99.90
18043;DHT22;9146;48.074;11.968;2023-04-03T07:54:17;3.00;99.90
18043;DHT22;9146;48.074;11.968;2023-04-03T07:56:43;3.20;99.90
18043;DHT22;9146;48.074;11.968;2023-04-03T07:59:10;3.20;99.90
18043;DHT22;9146;48.074;11.968;2023-04-03T08:01:38;3.30;99.90
18043;DHT22;9146;48.074;11.968;2023-04-03T08:04:05;3.40;99.90
18043;DHT22;9146;48.074;11.968;2023-04-03T08:06:33;3.40;99.90
18043;DHT22;9146;48.074;11.968;2023-04-03T08:09:02;3.50;99.90
18043;DHT22;9146;48.074;11.968;2023-04-03T08:11:30;3.60;99.90
18043;DHT22;9146;48.074;11.968;2023-04-03T08:13:58;3.80;99.90
18043;DHT22;9146;48.074;11.968;2023-04-03T08:16:25;3.80;99.90
18043;DHT22;9146;48.074;11.968;2023-04-03T08:18:53;3.90;99.90
18043;DHT22;9146;48.074;11.968;2023-04-03T08:21:21;4.00;99.90
18043;DHT22;9146;48.074;11.968;2023-04-03T08:23:50;4.10;99.90
18043;DHT22;9146;48.074;11.968;2023-04-03T08:26:19;4.30;99.90
18043;DHT22;9146;48.074;11.968;2023-04-03T08:28:46;4.40;99.90
18043;DHT22;9146;48.074;11.968;2023-04-03T08:31:15;4.50;99.90
18043;DHT22;9146;48.074;11.968;2023-04-03T08:33:44;4.60;99.90
18043;DHT22;9146;48.074;11.968;2023-04-03T08:36:18;4.60;99.90
18043;DHT22;9146;48.074;11.968;2023-04-03T08:38:46;4.80;99.90
18043;DHT22;9146;48.074;11.968;2023-04-03T08:41:20;4.80;99.90
18043;DHT22;9146;48.074;11.968;2023-04-03T08:44:04;4.80;99.90
18043;DHT22;9146;48.074;11.968;2023-04-03T08:46:43;4.90;99.90
18043;DHT22;9146;48.074;11.968;2023-04-03T08:49:18;4.80;99.90
18043;DHT22;9146;48.074;11.968;2023-04-03T08:51:49;4.90;99.90
18043;DHT22;9146;48.074;11.968;2023-04-03T08:54:24;5.00;99.90
18043;DHT22;9146;48.074;11.968;2023-04-03T08:56:55;5.10;99.90
18043;DHT22;9146;48.074;11.968;2023-04-03T08:59:26;5.10;99.90
18043;DHT22;9146;48.074;11.968;2023-04-03T09:01:54;5.10;99.90
18043;DHT22;9146;48.074;11.968;2023-04-03T09:04:31;5.10;99.90
18043;DHT22;9146;48.074;11.968;2023-04-03T09:07:03;5.10;99.90
18043;DHT22;9146;48.074;11.968;2023-04-03T09:09:35;5.10;99.90
18043;DHT22;9146;48.074;11.968;2023-04-03T09:12:13;5.10;99.90
18043;DHT22;9146;48.074;11.968;2023-04-03T09:14:49;5.10;99.90
18043;DHT22;9146;48.074;11.968;2023-04-03T09:17:26;5.10;99.90
18043;DHT22;9146;48.074;11.968;2023-04-03T09:20:03;5.20;99.90
18043;DHT22;9146;48.074;11.968;2023-04-03T09:22:37;5.30;99.90
18043;DHT22;9146;48.074;11.968;2023-04-03T09:25:10;5.50;99.90
18043;DHT22;9146;48.074;11.968;2023-04-03T09:27:41;5.60;99.90
18043;DHT22;9146;48.074;11.968;2023-04-03T09:30:13;5.70;99.90
18043;DHT22;9146;48.074;11.968;2023-04-03T09:32:43;5.70;99.90
18043;DHT22;9146;48.074;11.968;2023-04-03T09:35:23;5.70;99.90
18043;DHT22;9146;48.074;11.968;2023-04-03T09:37:52;5.80;99.90
18043;DHT22;9146;48.074;11.968;2023-04-03T09:40:37;5.70;99.90
18043;DHT22;9146;48.074;11.968;2023-04-03T09:43:24;5.60;99.90
18043;DHT22;9146;48.074;11.968;2023-04-03T09:45:52;5.50;99.90
18043;DHT22;9146;48.074;11.968;2023-04-03T09:48:20;5.30;99.90
18043;DHT22;9146;48.074;11.968;2023-04-03T09:51:00;5.20;99.90
18043;DHT22;9146;48.074;11.968;2023-04-03T09:53:35;5.30;99.90
18043;DHT22;9146;48.074;11.968;2023-04-03T09:56:04;5.30;99.90
18043;DHT22;9146;48.074;11.968;2023-04-03T09:58:36;5.40;99.90
18043;DHT22;9146;48.074;11.968;2023-04-03T10:01:04;5.40;99.90
18043;DHT22;9146;48.074;11.968;2023-04-03T10:03:33;5.50;99.90
18043;DHT22;9146;48.074;11.968;2023-04-03T10:06:02;5.60;99.90
18043;DHT22;9146;48.074;11.968;2023-04-03T10:08:31;5.60;99.90
18043;DHT22;9146;48.074;11.968;2023-04-03T10:11:15;5.60;99.90
18043;DHT22;9146;48.074;11.968;2023-04-03T10:13:54;5.50;99.90
18043;DHT22;9146;48.074;11.968;2023-04-03T10:16:26;5.50;99.90
18043;DHT22;9146;48.074;11.968;2023-04-03T10:19:03;5.30;99.90
18043;DHT22;9146;48.074;11.968;2023-04-03T10:21:38;5.10;99.90
18043;DHT22;9146;48.074;11.968;2023-04-03T10:24:11;4.90;99.90
18043;DHT22;9146;48.074;11.968;2023-04-03T10:26:47;4.70;99.90
18043;DHT22;9146;48.074;11.968;2023-04-03T10:29:26;4.40;99.90
18043;DHT22;9146;48.074;11.968;2023-04-03T10:32:00;4.30;99.90
18043;DHT22;9146;48.074;11.968;2023-04-03T10:34:30;4.10;99.90
18043;DHT22;9146;48.074;11.968;2023-04-03T10:37:04;3.90;99.90
18043;DHT22;9146;48.074;11.968;2023-04-03T10:39:39;3.50;99.90
18043;DHT22;9146;48.074;11.968;2023-04-03T10:42:16;3.20;99.90
18043;DHT22;9146;48.074;11.968;2023-04-03T10:45:15;3.10;99.90
18043;DHT22;9146;48.074;11.968;2023-04-03T10:47:54;3.00;99.90
18043;DHT22;9146;48.074;11.968;2023-04-03T10:50:43;3.00;99.90
18043;DHT22;9146;48.074;11.968;2023-04-03T10:53:19;3.00;99.90
18043;DHT22;9146;48.074;11.968;2023-04-03T10:55:53;3.20;99.90
18043;DHT22;9146;48.074;11.968;2023-04-03T10:58:49;3.40;99.90
18043;DHT22;9146;48.074;11.968;2023-04-03T11:01:45;3.60;99.90
18043;DHT22;9146;48.074;11.968;2023-04-03T11:04:40;3.90;99.90
18043;DHT22;9146;48.074;11.968;2023-04-03T11:07:37;4.10;99.90
18043;DHT22;9146;48.074;11.968;2023-04-03T11:10:35;4.10;99.90
18043;DHT22;9146;48.074;11.968;2023-04-03T11:13:10;4.20;99.90
18043;DHT22;9146;48.074;11.968;2023-04-03T11:15:38;4.20;99.90
18043;DHT22;9146;48.074;11.968;2023-04-03T11:18:11;4.30;99.90
18043;DHT22;9146;48.074;11.968;2023-04-03T11:20:44;4.40;99.90
18043;DHT22;9146;48.074;11.968;2023-04-03T11:23:21;4.60;99.90
18043;DHT22;9146;48.074;11.968;2023-04-03T11:25:51;4.80;99.90
18043;DHT22;9146;48.074;11.968;2023-04-03T11:28:19;4.80;99.90
18043;DHT22;9146;48.074;11.968;2023-04-03T11:30:48;4.70;99.90
18043;DHT22;9146;48.074;11.968;2023-04-03T11:33:32;4.60;99.90
18043;DHT22;9146;48.074;11.968;2023-04-03T11:36:02;4.40;99.90
18043;DHT22;9146;48.074;11.968;2023-04-03T11:38:33;4.20;99.90
18043;DHT22;9146;48.074;11.968;2023-04-03T11:41:03;4.10;99.90
18043;DHT22;9146;48.074;11.968;2023-04-03T11:43:32;4.10;99.90
18043;DHT22;9146;48.074;11.968;2023-04-03T11:46:01;4.10;99.90
18043;DHT22;9146;48.074;11.968;2023-04-03T11:48:49;4.20;99.90
18043;DHT22;9146;48.074;11.968;2023-04-03T11:51:38;4.10;99.90
18043;DHT22;9146;48.074;11.968;2023-04-03T11:57:50;4.10;99.90
18043;DHT22;9146;48.074;11.968;2023-04-03T12:09:33;4.70;99.90
18043;DHT22;9146;48.074;11.968;2023-04-03T12:12:19;4.90;99.90
18043;DHT22;9146;48.074;11.968;2023-04-03T12:14:48;5.10;99.90
18043;DHT22;9146;48.074;11.968;2023-04-03T12:17:21;5.20;99.90
18043;DHT22;9146;48.074;11.968;2023-04-03T12:19:49;5.30;99.90
18043;DHT22;9146;48.074;11.968;2023-04-03T12:22:18;5.40;99.90
18043;DHT22;9146;48.074;11.968;2023-04-03T12:24:49;5.60;99.90
18043;DHT22;9146;48.074;11.968;2023-04-03T12:27:41;5.70;99.90
18043;DHT22;9146;48.074;11.968;2023-04-03T12:30:16;5.90;99.90
18043;DHT22;9146;48.074;11.968;2023-04-03T12:33:09;6.00;99.90
18043;DHT22;9146;48.074;11.968;2023-04-03T12:35:49;6.00;99.90
18043;DHT22;9146;48.074;11.968;2023-04-03T12:38:41;5.90;99.90
18043;DHT22;9146;48.074;11.968;2023-04-03T12:41:34;6.00;99.90
18043;DHT22;9146;48.074;11.968;2023-04-03T12:44:19;6.00;99.90
18043;DHT22;9146;48.074;11.968;2023-04-03T12:46:50;5.80;99.90
18043;DHT22;9146;48.074;11.968;2023-04-03T12:49:30;5.90;99.90
18043;DHT22;9146;48.074;11.968;2023-04-03T12:52:00;5.90;99.90
18043;DHT22;9146;48.074;11.968;2023-04-03T12:54:30;6.00;99.90
18043;DHT22;9146;48.074;11.968;2023-04-03T12:57:17;6.00;99.90
18043;DHT22;9146;48.074;11.968;2023-04-03T12:59:45;6.10;99.90
18043;DHT22;9146;48.074;11.968;2023-04-03T13:02:24;6.30;99.90
18043;DHT22;9146;48.074;11.968;2023-04-03T13:04:53;6.30;99.90
18043;DHT22;9146;48.074;11.968;2023-04-03T13:07:25;6.40;99.90
18043;DHT22;9146;48.074;11.968;2023-04-03T13:10:02;6.50;99.90
18043;DHT22;9146;48.074;11.968;2023-04-03T13:12:30;6.60;99.90
18043;DHT22;9146;48.074;11.968;2023-04-03T13:14:59;6.60;99.90
18043;DHT22;9146;48.074;11.968;2023-04-03T13:17:30;6.60;99.90
18043;DHT22;9146;48.074;11.968;2023-04-03T13:20:11;6.80;99.90
18043;DHT22;9146;48.074;11.968;2023-04-03T13:22:42;7.00;99.90
18043;DHT22;9146;48.074;11.968;2023-04-03T13:25:15;7.20;99.90
18043;DHT22;9146;48.074;11.968;2023-04-03T13:27:44;7.20;99.90
18043;DHT22;9146;48.074;11.968;2023-04-03T13:30:27;7.30;99.90
18043;DHT22;9146;48.074;11.968;2023-04-03T13:32:56;7.20;99.90
18043;DHT22;9146;48.074;11.968;2023-04-03T13:35:34;7.00;99.90
18043;DHT22;9146;48.074;11.968;2023-04-03T13:38:06;6.80;99.90
18043;DHT22;9146;48.074;11.968;2023-04-03T13:40:33;6.70;99.90
18043;DHT22;9146;48.074;11.968;2023-04-03T13:43:05;6.60;99.90
18043;DHT22;9146;48.074;11.968;2023-04-03T13:45:33;6.50;99.90
18043;DHT22;9146;48.074;11.968;2023-04-03T13:48:10;6.50;99.90
18043;DHT22;9146;48.074;11.968;2023-04-03T13:50:54;6.40;99.90
18043;DHT22;9146;48.074;11.968;2023-04-03T13:53:22;6.30;99.90
18043;DHT22;9146;48.074;11.968;2023-04-03T13:56:05;6.30;99.90
18043;DHT22;9146;48.074;11.968;2023-04-03T13:58:34;6.30;99.90
18043;DHT22;9146;48.074;11.968;2023-04-03T14:01:09;6.20;99.90
18043;DHT22;9146;48.074;11.968;2023-04-03T14:03:42;6.30;99.90
18043;DHT22;9146;48.074;11.968;2023-04-03T14:06:11;6.40;99.90
18043;DHT22;9146;48.074;11.968;2023-04-03T14:08:39;6.50;99.90
18043;DHT22;9146;48.074;11.968;2023-04-03T14:11:11;6.60;99.90
18043;DHT22;9146;48.074;11.968;2023-04-03T14:13:41;6.60;99.90
18043;DHT22;9146;48.074;11.968;2023-04-03T14:16:11;6.70;99.90
18043;DHT22;9146;48.074;11.968;2023-04-03T14:18:38;6.80;99.90
18043;DHT22;9146;48.074;11.968;2023-04-03T14:21:06;6.90;99.90
18043;DHT22;9146;48.074;11.968;2023-04-03T14:23:33;7.00;99.30
18043;DHT22;9146;48.074;11.968;2023-04-03T14:26:00;7.10;98.70
18043;DHT22;9146;48.074;11.968;2023-04-03T14:28:27;7.00;97.80
18043;DHT22;9146;48.074;11.968;2023-04-03T14:30:56;6.90;97.70
18043;DHT22;9146;48.074;11.968;2023-04-03T14:33:23;6.80;97.70
18043;DHT22;9146;48.074;11.968;2023-04-03T14:35:51;6.60;97.60
18043;DHT22;9146;48.074;11.968;2023-04-03T14:38:24;6.50;97.20
18043;DHT22;9146;48.074;11.968;2023-04-03T14:40:52;6.40;97.90
18043;DHT22;9146;48.074;11.968;2023-04-03T14:43:21;6.30;98.50
18043;DHT22;9146;48.074;11.968;2023-04-03T14:45:49;6.20;97.50
18043;DHT22;9146;48.074;11.968;2023-04-03T14:48:21;6.10;97.30
18043;DHT22;9146;48.074;11.968;2023-04-03T14:50:51;6.00;96.50
18043;DHT22;9146;48.074;11.968;2023-04-03T14:53:19;5.90;97.40
18043;DHT22;9146;48.074;11.968;2023-04-03T14:55:49;5.90;96.70
18043;DHT22;9146;48.074;11.968;2023-04-03T14:58:17;5.80;95.80
18043;DHT22;9146;48.074;11.968;2023-04-03T15:00:45;5.70;95.60
18043;DHT22;9146;48.074;11.968;2023-04-03T15:03:14;5.70;95.60
18043;DHT22;9146;48.074;11.968;2023-04-03T15:05:44;5.70;94.50
18043;DHT22;9146;48.074;11.968;2023-04-03T15:08:19;5.80;95.50
18043;DHT22;9146;48.074;11.968;2023-04-03T15:10:46;5.90;95.10
18043;DHT22;9146;48.074;11.968;2023-04-03T15:13:13;5.90;94.80
18043;DHT22;9146;48.074;11.968;2023-04-03T15:15:41;6.00;95.00
18043;DHT22;9146;48.074;11.968;2023-04-03T15:18:14;6.20;93.20
18043;DHT22;9146;48.074;11.968;2023-04-03T15:20:43;6.20;93.30
18043;DHT22;9146;48.074;11.968;2023-04-03T15:23:11;6.30;92.80
18043;DHT22;9146;48.074;11.968;2023-04-03T15:25:39;6.30;92.20
18043;DHT22;9146;48.074;11.968;2023-04-03T15:28:08;6.30;91.10
18043;DHT22;9146;48.074;11.968;2023-04-03T15:30:37;6.20;91.30
18043;DHT22;9146;48.074;11.968;2023-04-03T15:33:06;6.20;90.90
18043;DHT22;9146;48.074;11.968;2023-04-03T15:35:32;6.10;90.90
18043;DHT22;9146;48.074;11.968;2023-04-03T15:38:01;6.10;90.70
18043;DHT22;9146;48.074;11.968;2023-04-03T15:40:28;6.00;90.20
18043;DHT22;9146;48.074;11.968;2023-04-03T15:42:55;6.00;90.20
18043;DHT22;9146;48.074;11.968;2023-04-03T15:45:22;6.00;91.10
18043;DHT22;9146;48.074;11.968;2023-04-03T15:47:49;6.00;90.40
18043;DHT22;9146;48.074;11.968;2023-04-03T15:50:17;6.10;90.20
18043;DHT22;9146;48.074;11.968;2023-04-03T15:52:43;6.10;90.60
18043;DHT22;9146;48.074;11.968;2023-04-03T15:55:12;6.10;90.70
18043;DHT22;9146;48.074;11.968;2023-04-03T15:57:39;6.10;90.70
18043;DHT22;9146;48.074;11.968;2023-04-03T16:00:07;6.00;89.70
18043;DHT22;9146;48.074;11.968;2023-04-03T16:02:34;5.90;91.00
18043;DHT22;9146;48.074;11.968;2023-04-03T16:05:01;5.80;90.70
18043;DHT22;9146;48.074;11.968;2023-04-03T16:07:28;5.70;91.30
18043;DHT22;9146;48.074;11.968;2023-04-03T16:09:55;5.60;91.00
18043;DHT22;9146;48.074;11.968;2023-04-03T16:12:24;5.50;91.00
18043;DHT22;9146;48.074;11.968;2023-04-03T16:14:51;5.40;91.20
18043;DHT22;9146;48.074;11.968;2023-04-03T16:17:18;5.20;91.40
18043;DHT22;9146;48.074;11.968;2023-04-03T16:19:45;5.10;92.60
18043;DHT22;9146;48.074;11.968;2023-04-03T16:22:12;5.10;93.30
18043;DHT22;9146;48.074;11.968;2023-04-03T16:24:40;5.00;93.60
18043;DHT22;9146;48.074;11.968;2023-04-03T16:27:07;4.90;94.30
18043;DHT22;9146;48.074;11.968;2023-04-03T16:29:35;4.90;93.40
18043;DHT22;9146;48.074;11.968;2023-04-03T16:32:03;4.70;94.80
18043;DHT22;9146;48.074;11.968;2023-04-03T16:34:30;4.70;95.40
18043;DHT22;9146;48.074;11.968;2023-04-03T16:36:58;4.60;96.00
18043;DHT22;9146;48.074;11.968;2023-04-03T16:39:26;4.50;95.80
18043;DHT22;9146;48.074;11.968;2023-04-03T16:41:53;4.50;95.70
18043;DHT22;9146;48.074;11.968;2023-04-03T16:44:20;4.40;96.20
18043;DHT22;9146;48.074;11.968;2023-04-03T16:46:48;4.30;96.30
18043;DHT22;9146;48.074;11.968;2023-04-03T16:49:15;4.30;96.70
18043;DHT22;9146;48.074;11.968;2023-04-03T16:51:43;4.20;96.40
18043;DHT22;9146;48.074;11.968;2023-04-03T16:54:11;4.10;96.70
18043;DHT22;9146;48.074;11.968;2023-04-03T16:56:39;4.00;97.20
18043;DHT22;9146;48.074;11.968;2023-04-03T16:59:06;4.00;97.50
18043;DHT22;9146;48.074;11.968;2023-04-03T17:01:33;4.00;97.40
18043;DHT22;9146;48.074;11.968;2023-04-03T17:04:02;3.90;97.10
18043;DHT22;9146;48.074;11.968;2023-04-03T17:06:29;3.80;96.80
18043;DHT22;9146;48.074;11.968;2023-04-03T17:08:56;3.80;96.80
18043;DHT22;9146;48.074;11.968;2023-04-03T17:11:23;3.70;96.80
18043;DHT22;9146;48.074;11.968;2023-04-03T17:13:51;3.70;96.40
18043;DHT22;9146;48.074;11.968;2023-04-03T17:16:18;3.60;96.80
18043;DHT22;9146;48.074;11.968;2023-04-03T17:18:45;3.50;96.20
18043;DHT22;9146;48.074;11.968;2023-04-03T17:21:15;3.40;96.50
18043;DHT22;9146;48.074;11.968;2023-04-03T17:23:45;3.40;96.40
18043;DHT22;9146;48.074;11.968;2023-04-03T17:26:12;3.30;96.60
18043;DHT22;9146;48.074;11.968;2023-04-03T17:28:40;3.20;97.40
18043;DHT22;9146;48.074;11.968;2023-04-03T17:31:07;3.20;97.70
18043;DHT22;9146;48.074;11.968;2023-04-03T17:33:34;3.10;98.20
18043;DHT22;9146;48.074;11.968;2023-04-03T17:36:02;3.10;98.20
18043;DHT22;9146;48.074;11.968;2023-04-03T17:38:31;3.00;97.90
18043;DHT22;9146;48.074;11.968;2023-04-03T17:41:00;3.00;98.20
18043;DHT22;9146;48.074;11.968;2023-04-03T17:43:28;2.90;98.40
18043;DHT22;9146;48.074;11.968;2023-04-03T17:45:59;2.80;98.20
18043;DHT22;9146;48.074;11.968;2023-04-03T17:48:28;2.80;98.20
18043;DHT22;9146;48.074;11.968;2023-04-03T17:50:55;2.80;98.50
18043;DHT22;9146;48.074;11.968;2023-04-03T17:53:22;2.70;98.80
18043;DHT22;9146;48.074;11.968;2023-04-03T17:55:51;2.70;99.90
18043;DHT22;9146;48.074;11.968;2023-04-03T17:58:18;2.60;99.90
18043;DHT22;9146;48.074;11.968;2023-04-03T18:00:44;2.60;99.90
18043;DHT22;9146;48.074;11.968;2023-04-03T18:03:11;2.50;99.90
18043;DHT22;9146;48.074;11.968;2023-04-03T18:05:38;2.50;99.90
18043;DHT22;9146;48.074;11.968;2023-04-03T18:08:06;2.40;99.90
18043;DHT22;9146;48.074;11.968;2023-04-03T18:10:34;2.40;99.90
18043;DHT22;9146;48.074;11.968;2023-04-03T18:13:03;2.30;99.90
18043;DHT22;9146;48.074;11.968;2023-04-03T18:15:30;2.20;99.90
18043;DHT22;9146;48.074;11.968;2023-04-03T18:17:57;2.20;99.90
18043;DHT22;9146;48.074;11.968;2023-04-03T18:20:24;2.10;99.90
18043;DHT22;9146;48.074;11.968;2023-04-03T18:22:51;2.00;99.90
18043;DHT22;9146;48.074;11.968;2023-04-03T18:25:19;2.00;99.90
18043;DHT22;9146;48.074;11.968;2023-04-03T18:27:46;2.00;99.90
18043;DHT22;9146;48.074;11.968;2023-04-03T18:30:16;1.90;99.90
18043;DHT22;9146;48.074;11.968;2023-04-03T18:32:43;1.90;99.90
18043;DHT22;9146;48.074;11.968;2023-04-03T18:35:10;1.80;99.90
18043;DHT22;9146;48.074;11.968;2023-04-03T18:37:37;1.80;99.90
18043;DHT22;9146;48.074;11.968;2023-04-03T18:40:05;1.80;99.90
18043;DHT22;9146;48.074;11.968;2023-04-03T18:42:33;1.80;99.90
18043;DHT22;9146;48.074;11.968;2023-04-03T18:45:03;1.70;99.90
18043;DHT22;9146;48.074;11.968;2023-04-03T18:47:32;1.70;99.90
18043;DHT22;9146;48.074;11.968;2023-04-03T18:50:02;1.70;99.90
18043;DHT22;9146;48.074;11.968;2023-04-03T18:52:29;1.60;99.90
18043;DHT22;9146;48.074;11.968;2023-04-03T18:54:56;1.60;99.90
18043;DHT22;9146;48.074;11.968;2023-04-03T18:57:24;1.60;99.90
18043;DHT22;9146;48.074;11.968;2023-04-03T18:59:51;1.60;99.90
18043;DHT22;9146;48.074;11.968;2023-04-03T19:02:18;1.50;99.90
18043;DHT22;9146;48.074;11.968;2023-04-03T19:04:50;1.50;99.90
18043;DHT22;9146;48.074;11.968;2023-04-03T19:07:18;1.50;99.90
18043;DHT22;9146;48.074;11.968;2023-04-03T19:09:45;1.40;99.90
18043;DHT22;9146;48.074;11.968;2023-04-03T19:12:12;1.40;99.90
18043;DHT22;9146;48.074;11.968;2023-04-03T19:14:39;1.30;99.90
18043;DHT22;9146;48.074;11.968;2023-04-03T19:17:06;1.20;99.90
18043;DHT22;9146;48.074;11.968;2023-04-03T19:19:33;1.20;99.90
18043;DHT22;9146;48.074;11.968;2023-04-03T19:22:02;1.10;99.90
18043;DHT22;9146;48.074;11.968;2023-04-03T19:24:29;1.10;99.90
18043;DHT22;9146;48.074;11.968;2023-04-03T19:26:56;1.00;99.90
18043;DHT22;9146;48.074;11.968;2023-04-03T19:29:22;1.00;99.90
18043;DHT22;9146;48.074;11.968;2023-04-03T19:31:50;0.90;99.90
18043;DHT22;9146;48.074;11.968;2023-04-03T19:34:17;0.80;99.90
18043;DHT22;9146;48.074;11.968;2023-04-03T19:36:44;0.80;99.90
18043;DHT22;9146;48.074;11.968;2023-04-03T19:39:14;0.70;99.90
18043;DHT22;9146;48.074;11.968;2023-04-03T19:41:41;0.60;99.90
18043;DHT22;9146;48.074;11.968;2023-04-03T19:44:11;0.60;99.90
18043;DHT22;9146;48.074;11.968;2023-04-03T19:46:38;0.50;99.90
18043;DHT22;9146;48.074;11.968;2023-04-03T19:49:05;0.50;99.90
18043;DHT22;9146;48.074;11.968;2023-04-03T19:51:32;0.40;99.90
18043;DHT22;9146;48.074;11.968;2023-04-03T19:53:59;0.30;99.90
18043;DHT22;9146;48.074;11.968;2023-04-03T19:56:27;0.30;99.90
18043;DHT22;9146;48.074;11.968;2023-04-03T19:58:54;0.20;99.90
18043;DHT22;9146;48.074;11.968;2023-04-03T20:01:22;0.10;99.90
18043;DHT22;9146;48.074;11.968;2023-04-03T20:03:51;0.00;99.90
18043;DHT22;9146;48.074;11.968;2023-04-03T20:06:18;-0.10;99.90
18043;DHT22;9146;48.074;11.968;2023-04-03T20:08:46;-0.20;99.90
18043;DHT22;9146;48.074;11.968;2023-04-03T20:11:13;-0.20;99.90
18043;DHT22;9146;48.074;11.968;2023-04-03T20:13:42;-0.30;99.90
18043;DHT22;9146;48.074;11.968;2023-04-03T20:16:09;-0.30;99.90
18043;DHT22;9146;48.074;11.968;2023-04-03T20:18:36;-0.40;99.90
18043;DHT22;9146;48.074;11.968;2023-04-03T20:21:04;-0.40;99.90
18043;DHT22;9146;48.074;11.968;2023-04-03T20:23:32;-0.50;99.90
18043;DHT22;9146;48.074;11.968;2023-04-03T20:26:00;-0.50;99.90
18043;DHT22;9146;48.074;11.968;2023-04-03T20:28:27;-0.60;99.90